Time;durP1;ratioP1;P1;durP2;ratioP2;P2;SDS_P1;SDS_P2;PMS_P1;PMS_P2;Temp;Humidity;BMP_temperature;BMP_pressure;BME280_temperature;BME280_humidity;BME280_pressure;Samples;Min_cycle;Max_cycle;Signal;HPM_P1;HPM_P2
2022/01/26 00:07:55;;;;;;;53.73;19.03;;;0.50;99.90;;;;;;5091545;28;20233;-64
2022/01/26 00:10:21;;;;;;;54.63;19.90;;;0.60;99.90;;;;;;5092434;28;20176;-64
2022/01/26 00:12:47;;;;;;;59.40;20.93;;;0.50;99.90;;;;;;5091596;28;20180;-64
2022/01/26 00:15:12;;;;;;;60.10;19.70;;;0.60;99.90;;;;;;5092210;28;20190;-64
2022/01/26 00:17:38;;;;;;;59.80;19.60;;;0.60;99.90;;;;;;5091680;28;20187;-64
2022/01/26 00:20:24;;;;;;;53.53;19.20;;;0.60;99.90;;;;;;5091341;28;20627;-64
2022/01/26 00:25:31;;;;;;;56.60;20.07;;;0.60;99.90;;;;;;5092079;28;20219;-64
2022/01/26 00:28:19;;;;;;;59.70;19.67;;;0.60;99.90;;;;;;5091220;28;20182;-63
2022/01/26 00:38:39;;;;;;;62.90;18.93;;;0.50;99.90;;;;;;5091384;28;20548;-63
2022/01/26 00:41:10;;;;;;;54.70;18.30;;;0.40;99.90;;;;;;5091187;28;20191;-63
2022/01/26 00:43:38;;;;;;;58.47;19.07;;;0.40;99.90;;;;;;5091402;28;20709;-63
2022/01/26 00:46:06;;;;;;;62.37;20.77;;;0.40;99.90;;;;;;5091452;28;20220;-63
2022/01/26 00:48:34;;;;;;;58.87;19.50;;;0.40;99.90;;;;;;5091559;28;20283;-63
2022/01/26 00:51:04;;;;;;;55.27;18.77;;;0.40;99.90;;;;;;5091380;28;20546;-63
2022/01/26 00:53:40;;;;;;;68.23;19.57;;;0.40;99.90;;;;;;5092213;28;20266;-63
2022/01/26 00:56:06;;;;;;;64.77;19.27;;;0.40;99.90;;;;;;5095288;28;20202;-63
2022/01/26 01:12:03;;;;;;;80.07;20.80;;;0.40;99.90;;;;;;5094581;28;20253;-63
2022/01/26 01:14:31;;;;;;;67.57;19.63;;;0.40;99.90;;;;;;5095325;28;20188;-63
2022/01/26 01:17:00;;;;;;;71.23;20.40;;;0.40;99.90;;;;;;5093566;28;20176;-63
2022/01/26 01:24:52;;;;;;;68.63;19.20;;;0.40;99.90;;;;;;5094952;28;20639;-63
2022/01/26 01:32:11;;;;;;;69.63;19.50;;;0.50;99.90;;;;;;5094501;28;20184;-64
2022/01/26 01:34:38;;;;;;;70.70;20.10;;;0.60;99.90;;;;;;5094896;28;20180;-64
2022/01/26 01:37:07;;;;;;;65.27;19.47;;;0.60;99.90;;;;;;5094022;28;20168;-64
2022/01/26 01:39:33;;;;;;;66.47;20.23;;;0.50;99.90;;;;;;5094277;28;20176;-64
2022/01/26 01:42:00;;;;;;;63.77;19.07;;;0.60;99.90;;;;;;5094517;28;20237;-64
2022/01/26 01:44:26;;;;;;;64.83;19.50;;;0.60;99.90;;;;;;5094814;28;20180;-64
2022/01/26 01:46:54;;;;;;;65.30;19.00;;;0.60;99.90;;;;;;5094203;28;20187;-64
2022/01/26 01:49:19;;;;;;;61.50;17.67;;;0.50;99.90;;;;;;5094634;28;20570;-63
2022/01/26 01:51:53;;;;;;;63.30;18.47;;;0.40;99.90;;;;;;5093715;28;20168;-63
2022/01/26 01:54:19;;;;;;;57.90;18.30;;;0.40;99.90;;;;;;5094335;28;20195;-63
2022/01/26 01:56:50;;;;;;;62.63;18.83;;;0.40;99.90;;;;;;5093755;28;20596;-63
2022/01/26 01:59:16;;;;;;;65.40;19.07;;;0.50;99.90;;;;;;5094206;28;20174;-63
2022/01/26 02:01:42;;;;;;;66.93;18.90;;;0.40;99.90;;;;;;5094158;28;20263;-63
2022/01/26 02:04:07;;;;;;;60.13;17.50;;;0.40;99.90;;;;;;5093641;28;20226;-63
2022/01/26 02:06:35;;;;;;;65.87;18.27;;;0.40;99.90;;;;;;5093387;28;20252;-63
2022/01/26 02:09:00;;;;;;;63.20;18.33;;;0.40;99.90;;;;;;5093870;28;20180;-63
2022/01/26 02:11:26;;;;;;;71.77;19.10;;;0.40;99.90;;;;;;5093721;28;20640;-64
2022/01/26 02:16:34;;;;;;;64.27;18.50;;;0.40;99.90;;;;;;5094071;28;20654;-63
2022/01/26 02:19:37;;;;;;;64.07;18.27;;;0.40;99.90;;;;;;5093546;28;20187;-64
2022/01/26 02:49:54;;;;;;;57.23;15.33;;;0.50;99.90;;;;;;5075469;28;20199;-63
2022/01/26 02:57:43;;;;;;;47.80;15.83;;;0.60;99.90;;;;;;5092817;28;20623;-63
2022/01/26 03:02:57;;;;;;;58.30;15.83;;;0.60;99.90;;;;;;5092811;28;20200;-64
2022/01/26 03:05:29;;;;;;;55.93;16.60;;;0.60;99.90;;;;;;5092875;28;20231;-63
2022/01/26 03:08:03;;;;;;;49.43;15.37;;;0.60;99.90;;;;;;5091849;28;20713;-63
2022/01/26 03:12:59;;;;;;;43.88;14.07;;;0.70;99.90;;;;;;5092598;28;20578;-63
2022/01/26 03:15:32;;;;;;;48.30;15.90;;;0.70;99.90;;;;;;5091251;28;20191;-63
2022/01/26 03:20:23;;;;;;;51.13;15.93;;;0.70;99.90;;;;;;5092677;28;20183;-64
2022/01/26 03:28:41;;;;;;;53.60;15.47;;;0.80;99.90;;;;;;5089143;28;20191;-63
2022/01/26 03:33:56;;;;;;;54.55;15.90;;;0.80;99.90;;;;;;5092234;28;20180;-63
2022/01/26 03:36:27;;;;;;;58.60;15.83;;;0.80;99.90;;;;;;5091588;28;20183;-63
2022/01/26 03:39:00;;;;;;;46.40;15.50;;;0.80;99.90;;;;;;5091889;28;20179;-63
2022/01/26 03:43:58;;;;;;;43.40;14.13;;;0.80;99.90;;;;;;5088643;28;20310;-63
2022/01/26 03:46:24;;;;;;;45.40;13.93;;;0.80;99.90;;;;;;5091525;28;20299;-63
2022/01/26 03:48:49;;;;;;;46.40;13.75;;;0.80;99.90;;;;;;5092000;28;20187;-63
2022/01/26 03:51:15;;;;;;;43.50;13.80;;;0.80;99.90;;;;;;5092071;28;20184;-63
2022/01/26 03:53:41;;;;;;;36.43;12.67;;;0.90;99.90;;;;;;5091684;28;20176;-63
2022/01/26 03:56:06;;;;;;;43.97;13.93;;;0.90;99.90;;;;;;5091587;28;20180;-63
2022/01/26 03:58:32;;;;;;;38.87;13.13;;;0.90;99.90;;;;;;5091889;28;20203;-64
2022/01/26 04:00:57;;;;;;;38.57;13.13;;;0.90;99.90;;;;;;5091335;28;20257;-63
2022/01/26 04:03:23;;;;;;;39.77;14.43;;;0.90;99.90;;;;;;5091804;28;20570;-63
2022/01/26 04:05:49;;;;;;;59.67;20.30;;;0.90;99.90;;;;;;5091898;28;20390;-63
2022/01/26 04:08:20;;;;;;;47.97;18.60;;;0.90;99.90;;;;;;5091612;28;20219;-63
2022/01/26 04:13:14;;;;;;;95.63;37.00;;;0.90;99.90;;;;;;5091792;28;20533;-63
2022/01/26 04:15:40;;;;;;;55.30;20.20;;;1.00;99.90;;;;;;5091516;28;20185;-63
2022/01/26 04:18:11;;;;;;;40.37;16.30;;;1.00;99.90;;;;;;5091514;28;20191;-63
2022/01/26 04:20:41;;;;;;;34.13;12.57;;;1.00;99.90;;;;;;5090593;28;20662;-63
2022/01/26 04:23:16;;;;;;;30.27;10.53;;;0.90;99.90;;;;;;5090719;28;20199;-63
2022/01/26 04:25:44;;;;;;;28.77;10.60;;;1.00;99.90;;;;;;5091150;28;20662;-63
2022/01/26 04:28:15;;;;;;;34.87;12.57;;;0.90;99.90;;;;;;5092352;28;20184;-64
2022/01/26 04:30:42;;;;;;;42.10;15.27;;;0.90;99.90;;;;;;5095269;28;20629;-63
2022/01/26 04:33:08;;;;;;;49.97;19.45;;;0.90;99.90;;;;;;5095435;28;20226;-63
2022/01/26 04:35:34;;;;;;;54.40;20.17;;;0.90;99.90;;;;;;5095737;28;20271;-63
2022/01/26 04:40:36;;;;;;;42.97;15.43;;;0.90;99.90;;;;;;5095500;28;20188;-63
2022/01/26 04:43:07;;;;;;;43.80;16.67;;;0.90;99.90;;;;;;5095211;28;20173;-63
2022/01/26 04:45:32;;;;;;;42.47;15.67;;;0.90;99.90;;;;;;5094966;28;20230;-63
2022/01/26 04:47:58;;;;;;;50.10;17.80;;;0.90;99.90;;;;;;5095650;28;20632;-64
2022/01/26 04:50:23;;;;;;;39.65;14.00;;;0.90;99.90;;;;;;5095676;28;20184;-63
2022/01/26 04:52:49;;;;;;;38.00;14.75;;;0.90;99.90;;;;;;5095332;28;20184;-63
2022/01/26 04:55:15;;;;;;;43.33;16.13;;;0.90;99.90;;;;;;5095266;28;20752;-63
2022/01/26 04:57:40;;;;;;;40.03;14.03;;;0.90;99.90;;;;;;5095170;28;20581;-62
2022/01/26 05:00:08;;;;;;;40.23;14.30;;;0.90;99.90;;;;;;5094969;28;20545;-62
2022/01/26 05:02:34;;;;;;;35.57;12.23;;;0.90;99.90;;;;;;5094841;28;20180;-61
2022/01/26 05:05:00;;;;;;;35.78;12.60;;;0.90;99.90;;;;;;5095037;28;20208;-63
2022/01/26 05:07:26;;;;;;;35.80;12.30;;;0.90;99.90;;;;;;5094870;28;20311;-62
2022/01/26 05:09:51;;;;;;;37.43;12.97;;;0.90;99.90;;;;;;5094921;28;20208;-63
2022/01/26 05:12:17;;;;;;;33.47;11.70;;;0.90;99.90;;;;;;5095083;28;20222;-63
2022/01/26 05:14:45;;;;;;;37.13;12.23;;;0.90;99.90;;;;;;5093711;28;20192;-64
2022/01/26 05:17:13;;;;;;;32.33;13.10;;;0.90;99.90;;;;;;5094055;28;20172;-61
2022/01/26 05:19:39;;;;;;;39.17;12.70;;;0.80;99.90;;;;;;5095051;28;20184;-62
2022/01/26 05:22:05;;;;;;;43.80;13.43;;;0.70;99.90;;;;;;5094916;28;20576;-66
2022/01/26 05:24:30;;;;;;;42.03;13.87;;;0.60;99.90;;;;;;5095209;28;20187;-67
2022/01/26 05:26:56;;;;;;;42.73;13.87;;;0.50;99.90;;;;;;5094259;28;20648;-66
2022/01/26 05:29:21;;;;;;;43.57;14.43;;;0.40;99.90;;;;;;5094889;28;20286;-66
2022/01/26 05:31:47;;;;;;;37.33;14.00;;;0.50;99.90;;;;;;5094644;28;20176;-65
2022/01/26 05:34:12;;;;;;;50.33;15.13;;;0.50;99.90;;;;;;5094722;28;20539;-65
2022/01/26 05:36:38;;;;;;;52.63;16.27;;;0.60;99.90;;;;;;5093328;28;20350;-65
2022/01/26 05:39:04;;;;;;;45.53;14.17;;;0.50;99.90;;;;;;5092167;28;20207;-62
2022/01/26 05:41:29;;;;;;;46.60;14.97;;;0.40;99.90;;;;;;5092901;28;20203;-61
2022/01/26 05:43:55;;;;;;;46.60;14.00;;;0.40;99.90;;;;;;5095136;28;20298;-62
2022/01/26 05:46:29;;;;;;;46.10;13.50;;;0.30;99.90;;;;;;5094755;28;20220;-62
2022/01/26 05:48:56;;;;;;;58.80;14.70;;;0.30;99.90;;;;;;5095007;28;20174;-61
2022/01/26 05:51:22;;;;;;;45.57;13.43;;;0.30;99.90;;;;;;5094894;28;20572;-62
2022/01/26 05:53:47;;;;;;;51.80;15.50;;;0.30;99.90;;;;;;5094825;28;20259;-63
2022/01/26 05:56:13;;;;;;;60.40;14.57;;;0.20;99.90;;;;;;5093463;28;20262;-63
2022/01/26 05:58:38;;;;;;;51.53;15.37;;;0.10;99.90;;;;;;5094788;28;20178;-63
2022/01/26 06:01:06;;;;;;;55.93;15.40;;;0.10;99.90;;;;;;5094434;28;20172;-64
2022/01/26 06:03:32;;;;;;;57.93;16.13;;;0.20;99.90;;;;;;5094792;28;20176;-63
2022/01/26 06:05:58;;;;;;;49.30;15.60;;;0.20;99.90;;;;;;5094153;28;20204;-63
2022/01/26 06:08:25;;;;;;;57.40;15.73;;;0.10;99.90;;;;;;5094256;28;20220;-63
2022/01/26 06:10:51;;;;;;;62.70;16.87;;;0.10;99.90;;;;;;5093215;28;20180;-63
2022/01/26 06:13:18;;;;;;;56.63;15.67;;;0.10;99.90;;;;;;5094446;28;20176;-63
2022/01/26 06:15:44;;;;;;;63.57;17.30;;;0.00;99.90;;;;;;5094278;28;20580;-62
2022/01/26 06:18:10;;;;;;;63.83;17.13;;;0.00;99.90;;;;;;5094221;28;20259;-62
2022/01/26 06:20:36;;;;;;;65.23;17.00;;;0.00;99.90;;;;;;5094056;28;20627;-63
2022/01/26 06:23:03;;;;;;;64.60;17.67;;;0.00;99.90;;;;;;5092886;28;20226;-63
2022/01/26 06:25:29;;;;;;;58.33;17.37;;;-0.10;99.90;;;;;;5094093;28;20212;-63
2022/01/26 06:27:58;;;;;;;56.33;15.83;;;-0.20;99.90;;;;;;5093943;28;20534;-63
2022/01/26 06:30:24;;;;;;;50.17;16.17;;;-0.20;99.90;;;;;;5094042;28;20180;-63
2022/01/26 06:32:50;;;;;;;56.53;17.33;;;-0.20;99.90;;;;;;5093951;28;20321;-63
2022/01/26 06:35:16;;;;;;;58.40;15.73;;;-0.20;99.90;;;;;;5093815;28;20540;-63
2022/01/26 06:37:44;;;;;;;48.30;15.63;;;-0.20;99.90;;;;;;5093832;28;20168;-63
2022/01/26 06:40:10;;;;;;;63.17;17.50;;;-0.30;99.90;;;;;;5093550;28;20278;-63
2022/01/26 06:45:38;;;;;;;53.27;14.93;;;-0.30;99.90;;;;;;5070188;28;20309;-63
2022/01/26 06:50:48;;;;;;;53.27;18.07;;;-0.40;99.90;;;;;;5092822;28;20175;-63
2022/01/26 06:53:13;;;;;;;54.33;17.53;;;-0.40;99.90;;;;;;5093306;28;20176;-63
2022/01/26 06:55:39;;;;;;;56.27;17.13;;;-0.40;99.90;;;;;;5093396;28;20699;-63
2022/01/26 06:58:05;;;;;;;57.33;17.80;;;-0.50;99.90;;;;;;5093399;28;20176;-63
2022/01/26 07:00:31;;;;;;;60.50;18.63;;;-0.40;99.90;;;;;;5093710;28;20176;-63
2022/01/26 07:02:56;;;;;;;57.37;17.70;;;-0.40;99.90;;;;;;5093070;28;20651;-63
2022/01/26 07:05:22;;;;;;;61.97;18.67;;;-0.40;99.90;;;;;;5093225;28;20259;-63
2022/01/26 07:07:48;;;;;;;58.37;18.87;;;-0.40;99.90;;;;;;5093066;28;20220;-63
2022/01/26 07:10:15;;;;;;;63.97;17.93;;;-0.40;99.90;;;;;;5093049;28;20179;-63
2022/01/26 07:12:40;;;;;;;53.90;18.30;;;-0.40;99.90;;;;;;5093122;28;20172;-62
2022/01/26 07:23:04;;;;;;;59.80;19.07;;;-0.50;99.90;;;;;;5092939;28;20176;-63
2022/01/26 07:25:29;;;;;;;49.87;17.10;;;-0.50;99.90;;;;;;5092780;28;20571;-63
2022/01/26 07:27:56;;;;;;;53.80;17.10;;;-0.50;99.90;;;;;;5092623;28;20176;-63
2022/01/26 07:30:22;;;;;;;56.60;17.47;;;-0.60;99.90;;;;;;5092661;28;20194;-63
2022/01/26 07:32:48;;;;;;;56.30;17.57;;;-0.60;99.90;;;;;;5092740;28;20179;-63
2022/01/26 07:35:14;;;;;;;51.83;16.20;;;-0.60;99.90;;;;;;5092604;28;20183;-63
2022/01/26 07:37:39;;;;;;;53.00;15.77;;;-0.50;99.90;;;;;;5091339;28;20263;-63
2022/01/26 07:40:09;;;;;;;54.73;16.50;;;-0.50;99.90;;;;;;5092452;28;20369;-63
2022/01/26 07:42:36;;;;;;;52.87;17.70;;;-0.50;99.90;;;;;;5092757;28;20185;-62
2022/01/26 07:45:04;;;;;;;50.70;16.23;;;-0.40;99.90;;;;;;5092387;28;20219;-62
2022/01/26 07:47:31;;;;;;;44.50;15.63;;;-0.40;99.90;;;;;;5092537;28;20526;-62
2022/01/26 07:49:58;;;;;;;42.30;15.80;;;-0.40;99.90;;;;;;5092478;28;20545;-63
2022/01/26 07:52:25;;;;;;;44.30;14.80;;;-0.40;99.90;;;;;;5092546;28;20265;-63
2022/01/26 07:54:52;;;;;;;40.23;13.97;;;-0.40;99.90;;;;;;5091090;28;20184;-63
2022/01/26 07:57:19;;;;;;;38.40;13.77;;;-0.30;99.90;;;;;;5092385;28;20631;-63
2022/01/26 07:59:45;;;;;;;40.33;14.27;;;-0.20;99.90;;;;;;5092374;28;20245;-63
2022/01/26 08:02:10;;;;;;;41.53;14.00;;;-0.20;99.90;;;;;;5092103;28;20180;-63
2022/01/26 08:04:36;;;;;;;42.90;14.30;;;-0.20;99.90;;;;;;5092329;28;20635;-63
2022/01/26 08:07:02;;;;;;;40.77;15.43;;;-0.30;99.90;;;;;;5092087;28;20230;-63
2022/01/26 08:09:27;;;;;;;49.37;15.60;;;-0.40;99.90;;;;;;5092486;28;20246;-63
2022/01/26 08:11:53;;;;;;;54.73;15.63;;;-0.40;99.90;;;;;;5092331;28;20658;-63
2022/01/26 08:14:19;;;;;;;48.10;15.27;;;-0.40;99.90;;;;;;5092293;28;20202;-62
2022/01/26 08:16:45;;;;;;;45.80;15.47;;;-0.40;99.90;;;;;;5092282;28;20176;-63
2022/01/26 08:19:12;;;;;;;50.03;16.63;;;-0.40;99.90;;;;;;5091479;28;20602;-62
2022/01/26 08:21:38;;;;;;;51.97;16.50;;;-0.40;99.90;;;;;;5092284;28;20191;-63
2022/01/26 08:24:12;;;;;;;49.40;15.23;;;-0.40;99.90;;;;;;5092215;28;20226;-63
2022/01/26 08:26:43;;;;;;;47.80;14.60;;;-0.40;99.90;;;;;;5092266;28;20690;-63
2022/01/26 08:29:15;;;;;;;46.33;16.43;;;-0.30;99.90;;;;;;5092265;28;20176;-63
2022/01/26 08:31:41;;;;;;;50.13;15.93;;;-0.20;99.90;;;;;;5092244;28;20196;-63
2022/01/26 08:34:07;;;;;;;47.80;16.83;;;-0.10;99.90;;;;;;5091449;28;20188;-63
2022/01/26 08:36:33;;;;;;;54.50;17.67;;;-0.10;99.90;;;;;;5089823;28;20183;-63
2022/01/26 08:38:58;;;;;;;50.23;16.57;;;0.00;99.90;;;;;;5091119;28;20640;-63
2022/01/26 08:41:24;;;;;;;54.37;16.40;;;0.10;99.90;;;;;;5089972;28;20172;-63
2022/01/26 08:43:49;;;;;;;46.43;15.70;;;0.10;99.90;;;;;;5090254;28;20180;-64
2022/01/26 08:46:18;;;;;;;51.70;15.50;;;0.00;99.90;;;;;;5091921;28;20691;-64
2022/01/26 08:48:43;;;;;;;51.70;16.83;;;0.00;99.90;;;;;;5092065;28;20175;-63
2022/01/26 08:51:09;;;;;;;54.93;16.73;;;0.00;99.90;;;;;;5091897;28;20274;-63
2022/01/26 08:53:34;;;;;;;51.83;16.57;;;0.00;99.90;;;;;;5091999;28;20176;-63
2022/01/26 08:56:00;;;;;;;52.37;16.30;;;-0.10;99.90;;;;;;5091950;28;20183;-64
2022/01/26 08:58:25;;;;;;;49.47;16.07;;;-0.10;99.90;;;;;;5091997;28;20187;-63
2022/01/26 09:00:51;;;;;;;53.20;17.70;;;-0.20;99.90;;;;;;5091954;28;20242;-64
2022/01/26 09:03:17;;;;;;;55.30;16.53;;;-0.20;99.90;;;;;;5091846;28;20214;-64
2022/01/26 09:05:42;;;;;;;54.67;17.67;;;-0.20;99.90;;;;;;5091932;28;20220;-64
2022/01/26 09:08:08;;;;;;;54.87;16.43;;;-0.20;99.90;;;;;;5091631;28;20631;-64
2022/01/26 09:10:34;;;;;;;50.47;14.80;;;-0.20;99.90;;;;;;5091802;28;20226;-64
2022/01/26 09:13:01;;;;;;;57.33;17.43;;;-0.20;99.90;;;;;;5091833;28;20180;-63
2022/01/26 09:15:29;;;;;;;50.30;16.63;;;-0.20;99.90;;;;;;5094140;28;20546;-63
2022/01/26 09:17:57;;;;;;;50.60;17.60;;;-0.10;99.90;;;;;;5095481;28;20181;-63
2022/01/26 09:20:22;;;;;;;45.90;16.53;;;0.00;99.90;;;;;;5095427;28;20175;-63
2022/01/26 09:22:48;;;;;;;46.13;16.53;;;-0.10;99.90;;;;;;5095355;28;20251;-63
2022/01/26 09:25:14;;;;;;;58.30;17.37;;;-0.10;99.90;;;;;;5095388;28;20212;-63
2022/01/26 09:27:40;;;;;;;59.23;17.17;;;-0.20;99.90;;;;;;5095235;28;20646;-63
2022/01/26 09:30:06;;;;;;;49.27;15.90;;;-0.30;99.90;;;;;;5095151;28;20573;-63
2022/01/26 09:32:31;;;;;;;55.10;17.10;;;-0.30;99.90;;;;;;5095100;28;20229;-63
2022/01/26 09:34:57;;;;;;;53.10;16.63;;;-0.30;99.90;;;;;;5095013;28;20564;-63
2022/01/26 09:37:22;;;;;;;53.33;16.63;;;-0.30;99.90;;;;;;5095128;28;20183;-63
2022/01/26 09:39:49;;;;;;;58.10;16.17;;;-0.30;99.90;;;;;;5094960;28;20176;-63
2022/01/26 09:42:16;;;;;;;49.30;17.03;;;-0.30;99.90;;;;;;5094898;28;20650;-63
2022/01/26 09:44:42;;;;;;;60.63;18.00;;;-0.30;99.90;;;;;;5094840;28;20233;-63
2022/01/26 09:47:10;;;;;;;54.17;18.80;;;-0.30;99.90;;;;;;5094769;28;20184;-63
2022/01/26 09:49:36;;;;;;;50.00;15.83;;;-0.30;99.90;;;;;;5094796;28;20218;-63
2022/01/26 09:52:07;;;;;;;45.90;15.20;;;-0.40;99.90;;;;;;5094762;28;20643;-63
2022/01/26 09:54:33;;;;;;;41.43;14.73;;;-0.30;99.90;;;;;;5094767;28;20172;-62
2022/01/26 09:57:04;;;;;;;45.27;15.63;;;-0.30;99.90;;;;;;5094519;28;20254;-63
2022/01/26 09:59:31;;;;;;;55.20;16.70;;;-0.30;99.90;;;;;;5094761;28;20209;-62
2022/01/26 10:01:58;;;;;;;50.30;17.60;;;-0.40;99.90;;;;;;5094724;28;20226;-63
2022/01/26 10:04:28;;;;;;;65.67;17.00;;;-0.40;99.90;;;;;;5094602;28;20169;-63
2022/01/26 10:07:51;;;;;;;59.57;17.53;;;-0.40;99.90;;;;;;5094275;28;20304;-64
2022/01/26 10:15:34;;;;;;;57.77;16.90;;;-0.40;99.90;;;;;;5094463;28;20228;-64
2022/01/26 10:18:11;;;;;;;52.00;16.13;;;-0.40;99.90;;;;;;5094310;28;20216;-63
2022/01/26 10:20:46;;;;;;;62.10;17.27;;;-0.50;99.90;;;;;;5094285;28;20180;-63
2022/01/26 10:23:18;;;;;;;54.07;16.10;;;-0.40;99.90;;;;;;5094157;28;20226;-62
2022/01/26 10:25:47;;;;;;;53.97;16.90;;;-0.40;99.90;;;;;;5094016;28;20227;-64
2022/01/26 10:28:14;;;;;;;49.63;16.07;;;-0.30;99.90;;;;;;5093048;28;20267;-64
2022/01/26 10:30:45;;;;;;;58.17;18.27;;;-0.40;99.90;;;;;;5094179;28;20180;-63
2022/01/26 10:33:11;;;;;;;49.27;16.97;;;-0.30;99.90;;;;;;5093983;28;20224;-63
2022/01/26 10:35:37;;;;;;;49.83;16.63;;;-0.30;99.90;;;;;;5093863;28;20184;-64
2022/01/26 10:38:03;;;;;;;56.43;17.73;;;-0.40;99.90;;;;;;5093871;28;20217;-64
2022/01/26 10:40:30;;;;;;;60.23;18.13;;;-0.30;99.90;;;;;;5093966;28;20321;-63
2022/01/26 10:43:08;;;;;;;55.93;19.00;;;-0.30;99.90;;;;;;5093722;28;20219;-64
2022/01/26 10:45:43;;;;;;;56.67;18.60;;;-0.40;99.90;;;;;;5094035;28;20212;-64
2022/01/26 10:48:17;;;;;;;52.87;19.33;;;-0.40;99.90;;;;;;5093692;28;20188;-64
2022/01/26 10:50:58;;;;;;;49.50;18.37;;;-0.40;99.90;;;;;;5093711;28;20548;-63
2022/01/26 10:53:26;;;;;;;52.53;19.57;;;-0.40;99.90;;;;;;5093805;28;20180;-64
2022/01/26 10:55:52;;;;;;;49.63;18.07;;;-0.40;99.90;;;;;;5093532;28;20176;-63
2022/01/26 10:58:18;;;;;;;55.27;17.83;;;-0.50;99.90;;;;;;5092340;28;20180;-62
2022/01/26 11:00:45;;;;;;;52.80;19.30;;;-0.50;99.90;;;;;;5093438;28;20346;-63
2022/01/26 11:03:11;;;;;;;51.87;17.50;;;-0.50;99.90;;;;;;5093311;28;20259;-63
2022/01/26 11:05:37;;;;;;;46.10;17.17;;;-0.50;99.90;;;;;;5093348;28;20296;-63
2022/01/26 11:08:03;;;;;;;51.33;17.23;;;-0.50;99.90;;;;;;5092997;28;20653;-63
2022/01/26 11:10:34;;;;;;;38.83;15.73;;;-0.50;99.90;;;;;;5093330;28;20666;-63
2022/01/26 11:13:00;;;;;;;48.80;16.73;;;-0.50;99.90;;;;;;5093092;28;20574;-63
2022/01/26 11:15:26;;;;;;;52.20;17.50;;;-0.50;99.90;;;;;;5093301;28;20176;-63
2022/01/26 11:17:52;;;;;;;55.73;19.27;;;-0.50;99.90;;;;;;5093337;28;20708;-63
2022/01/26 11:20:22;;;;;;;51.60;17.30;;;-0.40;99.90;;;;;;5092952;28;20200;-63
2022/01/26 11:22:48;;;;;;;51.67;17.80;;;-0.40;99.90;;;;;;5091916;28;20259;-63
2022/01/26 11:25:14;;;;;;;53.17;18.40;;;-0.40;99.90;;;;;;5091574;28;20215;-64
2022/01/26 11:27:41;;;;;;;54.40;16.60;;;-0.30;99.90;;;;;;5093175;28;20183;-63
2022/01/26 11:30:19;;;;;;;53.30;17.73;;;-0.30;99.90;;;;;;5074893;28;20195;-64
2022/01/26 11:32:57;;;;;;;49.77;18.00;;;-0.30;99.90;;;;;;5092823;28;20172;-62
2022/01/26 11:35:25;;;;;;;51.00;17.17;;;-0.30;99.90;;;;;;5091647;28;20183;-63
2022/01/26 11:38:09;;;;;;;57.80;17.70;;;-0.30;99.90;;;;;;5092169;28;20184;-64
2022/01/26 11:46:24;;;;;;;57.10;18.30;;;-0.20;99.90;;;;;;5091756;28;20219;-63
2022/01/26 11:49:00;;;;;;;48.77;17.03;;;-0.10;99.90;;;;;;5092686;28;20262;-64
2022/01/26 11:51:36;;;;;;;50.37;17.17;;;-0.10;99.90;;;;;;5092730;28;20187;-63
2022/01/26 11:54:10;;;;;;;54.60;18.33;;;-0.10;99.90;;;;;;5092579;28;20179;-63
2022/01/26 11:56:35;;;;;;;48.33;16.97;;;-0.10;99.90;;;;;;5092472;28;20212;-63
2022/01/26 11:59:01;;;;;;;49.00;17.27;;;-0.10;99.90;;;;;;5092500;28;20226;-63
2022/01/26 12:01:39;;;;;;;51.33;16.90;;;0.00;99.90;;;;;;5092480;28;20241;-64
2022/01/26 12:04:14;;;;;;;48.97;18.03;;;0.10;99.90;;;;;;5091298;28;20180;-64
2022/01/26 12:06:47;;;;;;;46.73;16.60;;;0.20;99.90;;;;;;5092275;28;20211;-63
2022/01/26 12:09:12;;;;;;;48.97;16.53;;;0.30;99.90;;;;;;5059410;28;20186;-64
2022/01/26 12:11:38;;;;;;;44.17;16.43;;;0.30;99.90;;;;;;5092531;28;20184;-64
2022/01/26 12:14:12;;;;;;;43.37;15.77;;;0.20;99.90;;;;;;5092256;28;20168;-64
2022/01/26 12:16:43;;;;;;;41.50;14.67;;;0.20;99.90;;;;;;5091019;28;20171;-64
2022/01/26 12:19:28;;;;;;;40.37;14.30;;;0.10;99.90;;;;;;5092196;28;20203;-64
2022/01/26 12:34:05;;;;;;;34.07;14.73;;;0.00;99.90;;;;;;5092665;28;20225;-64
2022/01/26 12:36:38;;;;;;;39.00;15.73;;;0.00;99.90;;;;;;5092160;28;20216;-63
2022/01/26 12:39:10;;;;;;;38.03;15.70;;;0.00;99.90;;;;;;5091004;28;20187;-65
2022/01/26 12:41:45;;;;;;;39.63;15.70;;;0.00;99.90;;;;;;5092310;28;20223;-63
2022/01/26 12:44:12;;;;;;;34.17;14.00;;;0.10;99.90;;;;;;5092170;28;20163;-64
2022/01/26 12:46:40;;;;;;;36.60;14.70;;;0.10;99.90;;;;;;5092038;28;20204;-65
2022/01/26 12:49:08;;;;;;;32.90;13.43;;;0.10;99.90;;;;;;5092214;28;20516;-64
2022/01/26 12:51:45;;;;;;;32.40;13.43;;;0.10;99.90;;;;;;5095940;28;20583;-64
2022/01/26 12:54:11;;;;;;;34.63;13.37;;;0.10;99.90;;;;;;5096052;28;20230;-64
2022/01/26 12:56:37;;;;;;;33.47;13.43;;;0.10;99.90;;;;;;5094649;28;20666;-65
2022/01/26 12:59:07;;;;;;;26.37;13.13;;;0.10;99.90;;;;;;5095794;28;20172;-65
2022/01/26 13:01:33;;;;;;;32.57;12.97;;;0.10;99.90;;;;;;5094917;28;20179;-65
2022/01/26 13:04:02;;;;;;;34.90;13.40;;;0.10;99.90;;;;;;5095721;28;20182;-64
2022/01/26 13:06:37;;;;;;;33.37;13.93;;;0.00;99.90;;;;;;5095579;28;20216;-65
2022/01/26 13:09:25;;;;;;;32.37;13.77;;;0.00;99.90;;;;;;5094379;28;20217;-64
2022/01/26 13:11:53;;;;;;;31.67;12.73;;;0.10;99.90;;;;;;5095605;28;20180;-65
2022/01/26 13:14:25;;;;;;;32.30;14.03;;;0.10;99.90;;;;;;5095663;28;20229;-64
2022/01/26 13:23:11;;;;;;;28.37;12.80;;;0.20;99.90;;;;;;5069554;28;20707;-64
2022/01/26 13:35:46;;;;;;;26.97;11.93;;;0.20;99.90;;;;;;5095313;28;20589;-63
2022/01/26 13:40:49;;;;;;;32.30;13.23;;;0.20;99.90;;;;;;5095172;28;20171;-63
2022/01/26 13:59:34;;;;;;;30.53;12.37;;;0.20;99.90;;;;;;5073202;28;20213;-65
2022/01/26 14:02:00;;;;;;;35.27;13.73;;;0.20;99.90;;;;;;5094218;28;20580;-64
2022/01/26 14:04:25;;;;;;;36.27;12.60;;;0.20;99.90;;;;;;5093979;28;20184;-66
2022/01/26 14:06:51;;;;;;;31.03;13.00;;;0.30;99.90;;;;;;5094303;28;20239;-65
2022/01/26 14:09:17;;;;;;;28.00;12.87;;;0.40;99.90;;;;;;5093086;28;20524;-67
2022/01/26 14:11:46;;;;;;;27.47;12.47;;;0.50;99.90;;;;;;5087631;28;20200;-66
2022/01/26 14:14:14;;;;;;;33.17;12.80;;;0.50;99.90;;;;;;5092770;28;20523;-66
2022/01/26 14:16:44;;;;;;;31.00;12.57;;;0.50;99.90;;;;;;5094326;28;20184;-66
2022/01/26 14:26:47;;;;;;;29.17;12.77;;;0.40;99.90;;;;;;5094329;28;20222;-64
2022/01/26 14:29:39;;;;;;;36.17;14.57;;;0.40;99.90;;;;;;5093999;28;20192;-66
2022/01/26 14:33:06;;;;;;;28.17;11.93;;;0.50;99.90;;;;;;5094115;27;20276;-67
2022/01/26 15:40:06;;;;;;;24.50;10.93;;;0.20;99.90;;;;;;5092673;28;20271;-67
2022/01/26 15:51:43;;;;;;;29.63;11.80;;;0.10;99.90;;;;;;5092039;28;20179;-67
2022/01/26 16:04:41;;;;;;;36.43;13.07;;;0.10;99.90;;;;;;5092470;28;20713;-67
2022/01/26 16:07:23;;;;;;;26.47;12.57;;;0.10;99.90;;;;;;5091617;28;20310;-66
2022/01/26 16:12:55;;;;;;;29.90;13.97;;;0.20;99.90;;;;;;5092643;28;20183;-65
2022/01/26 16:21:18;;;;;;;31.73;12.43;;;0.20;99.90;;;;;;5092339;28;20188;-64
2022/01/26 16:27:07;;;;;;;26.23;11.97;;;0.20;99.90;;;;;;5096501;28;20222;-64
2022/01/26 16:35:16;;;;;;;36.67;12.40;;;0.10;99.90;;;;;;5076177;28;20187;-64
2022/01/26 18:26:27;;;;;;;31.03;13.67;;;0.10;99.90;;;;;;5093620;28;20260;-67
2022/01/26 18:32:08;;;;;;;32.83;14.57;;;0.00;99.90;;;;;;5070969;28;20184;-65
2022/01/26 18:40:33;;;;;;;31.17;12.70;;;-0.10;99.90;;;;;;5061582;28;20219;-63
2022/01/26 18:51:11;;;;;;;33.57;14.57;;;-0.20;99.90;;;;;;5084843;28;20283;-67
2022/01/26 18:53:37;;;;;;;31.47;14.33;;;-0.20;99.90;;;;;;5090618;28;20198;-66
2022/01/26 18:56:02;;;;;;;32.40;13.77;;;-0.20;99.90;;;;;;5091903;28;20180;-67
2022/01/26 18:58:28;;;;;;;31.60;14.13;;;-0.20;99.90;;;;;;5082575;28;20176;-65
2022/01/26 19:00:54;;;;;;;33.50;13.73;;;-0.20;99.90;;;;;;5093389;28;20225;-65
2022/01/26 19:03:19;;;;;;;27.40;11.90;;;-0.30;99.90;;;;;;5093426;28;20176;-66
2022/01/26 19:05:45;;;;;;;29.23;13.10;;;-0.30;99.90;;;;;;5093011;28;20200;-66
2022/01/26 19:08:11;;;;;;;34.53;13.70;;;-0.30;99.90;;;;;;5092343;28;20551;-66
2022/01/26 19:10:36;;;;;;;32.57;15.03;;;-0.30;99.90;;;;;;5092083;28;20232;-66
2022/01/26 19:13:02;;;;;;;34.40;14.93;;;-0.20;99.90;;;;;;5093143;28;20221;-66
2022/01/26 19:15:31;;;;;;;28.30;12.93;;;-0.30;99.90;;;;;;5092973;28;20191;-66
2022/01/26 19:18:06;;;;;;;30.40;12.67;;;-0.30;99.90;;;;;;5092847;28;20210;-67
2022/01/26 19:20:48;;;;;;;31.63;13.53;;;-0.20;99.90;;;;;;5093071;28;20192;-66
2022/01/26 19:23:36;;;;;;;27.67;12.93;;;-0.30;99.90;;;;;;5092914;28;20218;-66
2022/01/26 19:26:09;;;;;;;27.03;12.37;;;-0.30;99.90;;;;;;5092989;28;20232;-66
2022/01/26 19:28:44;;;;;;;25.40;11.43;;;-0.30;99.90;;;;;;5092860;28;20187;-66